Time;durP1;ratioP1;P1;durP2;ratioP2;P2;SDS_P1;SDS_P2;PMS_P1;PMS_P2;Temp;Humidity;BMP_temperature;BMP_pressure;BME280_temperature;BME280_humidity;BME280_pressure;Samples;Min_cycle;Max_cycle;Signal;HPM_P1;HPM_P2
2022/12/11 00:01:57;;;;;;;24.30;10.05;;;;;;;-4.34;93.51;93065.66;4990531;28;20503;-64
2022/12/11 00:04:23;;;;;;;27.83;10.52;;;;;;;-4.45;93.93;93067.25;4990440;28;20042;-65
2022/12/11 00:06:51;;;;;;;24.67;9.88;;;;;;;-4.54;95.32;93062.06;4991152;28;20050;-64
2022/12/11 00:09:19;;;;;;;23.33;8.75;;;;;;;-4.51;95.88;93068.63;4990271;28;20053;-64
2022/12/11 00:11:46;;;;;;;21.92;9.43;;;;;;;-4.47;96.04;93062.22;4990986;28;20048;-64
2022/12/11 00:14:14;;;;;;;25.77;10.10;;;;;;;-4.49;96.65;93059.13;4989391;28;20451;-64
2022/12/11 00:16:41;;;;;;;20.88;8.50;;;;;;;-4.47;96.52;93064.13;4990878;28;20046;-64
2022/12/11 00:19:07;;;;;;;24.45;9.23;;;;;;;-4.33;97.21;93056.47;4989799;28;20115;-65
2022/12/11 00:21:35;;;;;;;26.88;10.10;;;;;;;-4.18;96.84;93054.19;5005802;28;20046;-64
2022/12/11 00:24:01;;;;;;;25.40;9.45;;;;;;;-3.97;96.39;93054.72;4990023;28;20471;-62
2022/12/11 00:26:28;;;;;;;24.23;9.68;;;;;;;-3.97;95.78;93057.41;4990893;28;20449;-64
2022/12/11 00:28:56;;;;;;;25.05;9.13;;;;;;;-3.81;95.27;93052.03;4989614;28;20402;-64
2022/12/11 00:31:23;;;;;;;22.90;9.30;;;;;;;-3.85;95.43;93051.94;4990229;28;20104;-64
2022/12/11 00:33:50;;;;;;;22.33;8.75;;;;;;;-3.79;94.58;93051.69;4990680;28;20046;-65
2022/12/11 00:36:20;;;;;;;30.77;10.82;;;;;;;-3.92;94.12;93057.16;4990016;28;20104;-64
2022/12/11 00:38:48;;;;;;;20.27;8.73;;;;;;;-3.93;94.00;93044.88;4990494;28;20050;-64
2022/12/11 00:41:17;;;;;;;27.55;9.73;;;;;;;-3.78;94.15;93048.69;4989876;28;20442;-65
2022/12/11 00:43:45;;;;;;;24.17;9.15;;;;;;;-3.70;93.50;93050.41;4990698;28;20110;-65
2022/12/11 00:46:12;;;;;;;27.75;10.68;;;;;;;-3.71;93.09;93056.88;4989962;28;20046;-65
2022/12/11 00:48:39;;;;;;;23.17;8.93;;;;;;;-3.73;92.34;93055.69;4990606;28;20043;-64
2022/12/11 00:51:06;;;;;;;25.73;9.10;;;;;;;-3.74;92.01;93059.47;4989558;28;20088;-64
2022/12/11 00:53:32;;;;;;;56.78;21.58;;;;;;;-3.74;91.99;93067.50;4990681;28;20084;-64
2022/12/11 00:55:59;;;;;;;31.27;12.07;;;;;;;-3.80;91.29;93075.06;4988530;28;20077;-62
2022/12/11 00:58:26;;;;;;;23.85;9.18;;;;;;;-3.94;91.21;93085.41;4990536;28;20066;-64
2022/12/11 01:00:53;;;;;;;22.13;8.93;;;;;;;-4.02;91.27;93079.88;4990128;28;20378;-65
2022/12/11 01:03:20;;;;;;;18.33;7.53;;;;;;;-4.18;91.11;93089.78;4989880;28;20054;-64
2022/12/11 01:05:51;;;;;;;24.70;9.88;;;;;;;-4.23;90.90;93082.00;4990534;28;20088;-63
2022/12/11 01:08:18;;;;;;;26.38;10.25;;;;;;;-4.27;90.72;93094.53;4989755;28;20859;-64
2022/12/11 01:10:45;;;;;;;40.75;17.38;;;;;;;-4.35;90.41;93100.81;4990433;28;20050;-65
2022/12/11 01:13:12;;;;;;;19.90;8.30;;;;;;;-4.48;90.42;93092.81;4989468;28;20078;-64
2022/12/11 01:15:44;;;;;;;25.13;9.95;;;;;;;-4.63;90.44;93097.03;4989075;28;20045;-64
2022/12/11 01:18:12;;;;;;;19.85;8.50;;;;;;;-4.82;90.87;93102.97;4989281;28;20062;-65
2022/12/11 01:20:41;;;;;;;30.17;10.32;;;;;;;-5.29;92.90;93103.50;4989930;28;20383;-64
2022/12/11 01:23:11;;;;;;;29.20;10.20;;;;;;;-5.42;93.13;93109.97;4989617;28;20042;-64
2022/12/11 01:25:38;;;;;;;23.70;9.25;;;;;;;-5.42;92.75;93105.38;4991644;28;20043;-65
2022/12/11 01:28:06;;;;;;;19.13;7.85;;;;;;;-5.62;94.42;93098.25;4992148;28;20046;-64
2022/12/11 01:30:34;;;;;;;20.25;7.13;;;;;;;-5.60;94.22;93098.72;4993799;28;20430;-64
2022/12/11 01:33:01;;;;;;;22.80;8.05;;;;;;;-5.46;93.33;93103.72;4993100;28;20410;-65
2022/12/11 01:35:28;;;;;;;25.92;8.75;;;;;;;-5.57;94.53;93097.25;4993820;28;20042;-64
2022/12/11 01:37:55;;;;;;;25.50;9.32;;;;;;;-5.55;94.95;93095.03;4993658;28;20042;-64
2022/12/11 01:40:22;;;;;;;26.85;9.63;;;;;;;-5.58;94.91;93088.47;4992800;28;20046;-65
2022/12/11 01:42:49;;;;;;;26.83;10.15;;;;;;;-5.71;96.45;93098.38;4993561;28;20054;-65
2022/12/11 01:45:37;;;;;;;24.60;9.30;;;;;;;-5.66;95.02;93100.81;4993095;28;20046;-64
2022/12/11 01:48:08;;;;;;;20.85;8.73;;;;;;;-5.68;94.58;93095.03;4992903;28;20398;-65
2022/12/11 01:50:41;;;;;;;25.25;9.38;;;;;;;-5.81;94.73;93106.84;4993482;28;20038;-65
2022/12/11 01:53:11;;;;;;;23.95;9.43;;;;;;;-5.91;95.01;93113.38;4992744;28;20039;-65
2022/12/11 01:55:38;;;;;;;21.58;8.38;;;;;;;-6.11;95.55;93112.38;4993513;28;20046;-65
2022/12/11 01:58:05;;;;;;;20.42;8.27;;;;;;;-6.27;94.96;93114.13;4992610;28;20047;-65
2022/12/11 02:00:32;;;;;;;23.35;8.48;;;;;;;-6.37;95.88;93111.84;4993138;28;20049;-64
2022/12/11 02:02:59;;;;;;;19.55;7.90;;;;;;;-6.41;96.04;93114.41;4993113;28;20495;-64
2022/12/11 02:05:25;;;;;;;19.80;7.50;;;;;;;-6.46;95.98;93112.72;4992156;28;20414;-65
2022/12/11 02:07:57;;;;;;;20.15;7.40;;;;;;;-6.48;95.94;93108.78;4993311;28;20045;-64
2022/12/11 02:10:43;;;;;;;19.02;7.78;;;;;;;-6.61;95.73;93116.00;4992629;28;20045;-65
2022/12/11 02:13:38;;;;;;;21.40;7.50;;;;;;;-6.59;96.10;93119.09;4992449;28;20046;-65
2022/12/11 02:16:15;;;;;;;19.27;7.05;;;;;;;-6.62;95.27;93133.09;4992152;28;20038;-65
2022/12/11 02:18:52;;;;;;;18.77;7.30;;;;;;;-6.77;95.30;93133.69;4992912;28;20052;-65
2022/12/11 02:21:21;;;;;;;17.15;6.43;;;;;;;-6.72;95.36;93133.50;4992403;28;20098;-65
2022/12/11 02:24:17;;;;;;;18.05;6.82;;;;;;;-6.75;95.39;93142.16;4992976;28;20479;-65
2022/12/11 02:27:15;;;;;;;18.63;6.35;;;;;;;-6.84;94.88;93134.19;4972240;28;20599;-65
2022/12/11 02:30:08;;;;;;;17.92;6.95;;;;;;;-6.86;94.50;93131.09;4972693;28;20054;-65
2022/12/11 02:32:54;;;;;;;17.73;6.75;;;;;;;-6.91;94.38;93136.63;4972589;28;20055;-65
2022/12/11 02:35:34;;;;;;;17.25;6.93;;;;;;;-7.04;94.06;93136.56;4972702;28;20047;-65
2022/12/11 02:38:06;;;;;;;42.75;14.85;;;;;;;-7.07;94.43;93134.53;4987368;28;20055;-65
2022/12/11 02:40:37;;;;;;;23.42;8.27;;;;;;;-7.05;94.81;93134.97;4973139;28;20046;-65
2022/12/11 02:43:08;;;;;;;22.23;7.95;;;;;;;-7.11;94.91;93130.16;4971116;28;20045;-65
2022/12/11 02:45:38;;;;;;;21.17;7.82;;;;;;;-7.10;95.50;93131.72;4973194;28;20057;-65
2022/12/11 02:48:08;;;;;;;19.02;6.70;;;;;;;-7.07;95.58;93120.41;4972497;28;20051;-65
2022/12/11 02:50:41;;;;;;;20.67;7.55;;;;;;;-7.00;95.25;93130.56;4973057;28;20089;-65
2022/12/11 02:53:11;;;;;;;20.73;7.70;;;;;;;-7.00;95.15;93123.38;4972355;28;20502;-65
2022/12/11 02:55:40;;;;;;;19.27;6.60;;;;;;;-6.95;95.34;93128.50;4977393;28;20046;-64
2022/12/11 02:58:25;;;;;;;17.75;7.28;;;;;;;-6.81;95.54;93130.13;4991383;28;20042;-65
2022/12/11 03:00:52;;;;;;;19.60;7.00;;;;;;;-6.68;95.12;93129.88;4991925;28;20038;-65
2022/12/11 03:03:19;;;;;;;23.15;7.82;;;;;;;-6.56;95.06;93137.16;4991493;28;20057;-64
2022/12/11 03:05:46;;;;;;;20.00;7.47;;;;;;;-6.37;95.99;93133.22;4992107;28;20042;-65
2022/12/11 03:08:16;;;;;;;21.60;7.55;;;;;;;-6.29;95.58;93129.69;4991361;28;20411;-64
2022/12/11 03:10:44;;;;;;;19.65;7.82;;;;;;;-6.12;95.64;93139.41;4992190;28;20376;-65
2022/12/11 03:13:15;;;;;;;20.42;7.28;;;;;;;-5.98;95.94;93131.88;4991066;28;20446;-65
2022/12/11 03:16:02;;;;;;;17.67;7.47;;;;;;;-5.94;96.78;93145.31;4991843;28;20398;-65
2022/12/11 03:18:48;;;;;;;22.40;8.70;;;;;;;-6.01;98.61;93142.47;4990415;28;20835;-64
2022/12/11 03:21:23;;;;;;;22.20;8.15;;;;;;;-5.77;97.27;93147.03;4990910;28;20068;-64
2022/12/11 03:24:04;;;;;;;24.98;9.05;;;;;;;-5.65;97.16;93150.50;4991756;28;20378;-65
2022/12/11 03:26:37;;;;;;;20.55;7.60;;;;;;;-5.49;97.94;93131.91;4990469;28;20926;-65
2022/12/11 03:29:14;;;;;;;22.85;8.63;;;;;;;-5.33;97.81;93134.72;4991362;28;20111;-65
2022/12/11 03:31:45;;;;;;;24.17;8.50;;;;;;;-5.23;96.98;93133.47;4991531;28;20046;-66
2022/12/11 03:34:23;;;;;;;22.20;8.07;;;;;;;-5.16;96.01;93131.00;4990815;28;20065;-66
2022/12/11 03:36:52;;;;;;;22.20;8.93;;;;;;;-5.45;96.61;93132.81;4991594;28;20046;-65
2022/12/11 03:39:31;;;;;;;21.50;8.35;;;;;;;-5.45;97.12;93134.72;4990435;28;20161;-65
2022/12/11 03:42:04;;;;;;;21.45;8.00;;;;;;;-5.40;97.28;93126.44;4991480;28;20068;-65
2022/12/11 03:44:33;;;;;;;21.15;8.20;;;;;;;-5.30;96.94;93128.66;5005411;28;20792;-65
2022/12/11 03:47:04;;;;;;;20.05;8.32;;;;;;;-5.17;97.39;93137.50;4991013;28;20058;-65
2022/12/11 03:49:36;;;;;;;30.25;10.38;;;;;;;-5.16;96.50;93122.97;4990873;28;20046;-65
2022/12/11 03:52:04;;;;;;;26.70;9.57;;;;;;;-5.29;96.49;93132.13;4991001;28;20046;-65
2022/12/11 03:54:33;;;;;;;26.33;10.10;;;;;;;-5.34;96.10;93135.03;4990966;28;20054;-65
2022/12/11 03:57:03;;;;;;;28.55;9.98;;;;;;;-5.41;95.98;93135.59;4990869;28;20042;-63
2022/12/11 03:59:29;;;;;;;23.38;9.00;;;;;;;-5.67;95.69;93130.56;4990932;28;20048;-65
2022/12/11 04:01:56;;;;;;;24.45;9.77;;;;;;;-5.77;95.33;93134.44;4990847;28;20483;-64
2022/12/11 04:04:23;;;;;;;23.60;9.18;;;;;;;-5.83;95.53;93133.88;4990418;28;20050;-64
2022/12/11 04:06:50;;;;;;;23.15;8.50;;;;;;;-5.84;95.56;93129.63;4989741;28;20105;-65
2022/12/11 04:09:16;;;;;;;23.23;9.23;;;;;;;-5.91;95.04;93131.31;4990329;28;20050;-65
2022/12/11 04:11:43;;;;;;;21.30;8.20;;;;;;;-5.98;95.16;93131.09;4991213;28;20042;-66
2022/12/11 04:16:59;;;;;;;19.08;7.03;;;;;;;-6.44;92.85;93129.19;4990961;28;20391;-65
2022/12/11 04:24:59;;;;;;;19.35;7.05;;;;;;;-6.68;93.34;93140.53;4990736;28;20438;-65
2022/12/11 04:30:18;;;;;;;18.92;6.65;;;;;;;-7.17;93.48;93137.56;4989815;28;20156;-65
2022/12/11 04:32:44;;;;;;;18.20;6.50;;;;;;;-7.26;94.25;93142.19;4990948;28;20094;-64
2022/12/11 04:35:11;;;;;;;22.05;7.82;;;;;;;-7.09;94.52;93138.63;4989957;28;20056;-65
2022/12/11 04:37:38;;;;;;;21.65;7.55;;;;;;;-7.03;94.43;93135.44;4990718;28;20038;-64
2022/12/11 04:40:09;;;;;;;19.50;6.82;;;;;;;-7.00;94.36;93135.91;4990217;28;20043;-64
2022/12/11 04:42:36;;;;;;;17.02;6.60;;;;;;;-7.03;93.23;93132.78;4990648;28;20165;-63
2022/12/11 04:45:04;;;;;;;18.08;6.32;;;;;;;-7.05;93.09;93137.66;4990145;28;20042;-64
2022/12/11 04:47:31;;;;;;;18.88;6.95;;;;;;;-6.98;93.26;93136.34;4990286;28;20045;-63
2022/12/11 04:49:57;;;;;;;17.30;6.18;;;;;;;-6.90;92.56;93132.84;4990614;28;20046;-64
2022/12/11 04:52:24;;;;;;;17.85;6.53;;;;;;;-7.00;92.95;93135.91;4990041;28;20046;-64
2022/12/11 04:54:51;;;;;;;17.40;6.07;;;;;;;-6.87;93.02;93134.88;4990635;28;20058;-64
2022/12/11 04:57:19;;;;;;;18.13;6.22;;;;;;;-6.78;92.71;93132.94;4988577;28;20054;-63
2022/12/11 04:59:46;;;;;;;18.15;6.43;;;;;;;-6.71;92.68;93127.06;4992110;28;20038;-64
2022/12/11 05:02:14;;;;;;;20.05;6.57;;;;;;;-6.65;92.84;93121.19;4993284;28;20055;-64
2022/12/11 05:04:41;;;;;;;16.10;6.53;;;;;;;-6.55;92.45;93121.91;4994229;28;20376;-64
2022/12/11 05:07:08;;;;;;;16.80;6.30;;;;;;;-6.52;91.96;93122.03;4993807;28;20673;-64
2022/12/11 05:09:35;;;;;;;19.42;7.15;;;;;;;-6.41;92.06;93125.06;4994067;28;20042;-64
2022/12/11 05:12:02;;;;;;;16.77;6.90;;;;;;;-6.33;92.19;93129.56;4993871;28;20404;-64
2022/12/11 05:14:30;;;;;;;17.73;6.50;;;;;;;-6.28;91.86;93126.69;4992754;28;20426;-63
2022/12/11 05:16:58;;;;;;;17.85;6.75;;;;;;;-6.26;92.05;93132.47;4994274;28;20044;-64
2022/12/11 05:19:25;;;;;;;16.10;6.43;;;;;;;-6.16;91.63;93130.50;4991712;28;20046;-64
2022/12/11 05:21:52;;;;;;;17.92;6.80;;;;;;;-6.26;91.38;93129.00;4993907;28;20042;-64
2022/12/11 05:24:19;;;;;;;18.67;7.03;;;;;;;-6.16;91.55;93125.16;4993178;28;20093;-64
2022/12/11 05:26:46;;;;;;;18.20;7.82;;;;;;;-6.16;91.76;93128.59;4994118;28;20042;-64
2022/12/11 05:29:12;;;;;;;17.50;6.75;;;;;;;-6.11;91.20;93124.94;4993726;28;20058;-64
2022/12/11 05:31:39;;;;;;;17.35;7.20;;;;;;;-6.10;91.63;93118.50;4992560;28;20046;-63
2022/12/11 05:34:06;;;;;;;19.63;7.95;;;;;;;-6.12;91.71;93121.47;4993234;28;20045;-63
2022/12/11 05:36:33;;;;;;;18.48;7.00;;;;;;;-6.19;90.94;93121.25;4993586;28;20407;-64
2022/12/11 05:39:00;;;;;;;17.40;7.15;;;;;;;-6.30;90.49;93114.75;4993080;28;20601;-60
2022/12/11 05:41:29;;;;;;;18.27;7.20;;;;;;;-6.50;90.96;93114.50;4993319;28;20092;-63
2022/12/11 05:43:56;;;;;;;18.13;6.55;;;;;;;-6.75;91.18;93107.47;4993943;28;20038;-64
2022/12/11 05:46:25;;;;;;;17.00;6.45;;;;;;;-7.03;91.91;93100.00;4991775;28;20046;-64
2022/12/11 05:48:59;;;;;;;25.67;8.85;;;;;;;-7.19;91.83;93109.69;4993726;28;20061;-64
2022/12/11 05:51:27;;;;;;;19.92;7.78;;;;;;;-7.31;92.09;93115.72;4992512;28;20605;-64
2022/12/11 05:53:55;;;;;;;22.13;8.23;;;;;;;-7.50;92.17;93116.91;4993648;28;20052;-64
2022/12/11 05:56:25;;;;;;;29.15;11.07;;;;;;;-7.57;91.82;93118.53;4992669;28;20038;-63
2022/12/11 05:58:53;;;;;;;21.60;8.40;;;;;;;-7.56;92.19;93122.75;4993248;28;20495;-63
2022/12/11 06:01:27;;;;;;;21.35;8.15;;;;;;;-7.67;91.28;93123.09;4991607;28;20486;-64
2022/12/11 06:03:55;;;;;;;18.15;6.65;;;;;;;-7.87;90.98;93119.28;4993963;28;20678;-64
2022/12/11 06:06:22;;;;;;;23.55;8.35;;;;;;;-7.92;92.30;93113.34;4998390;28;20042;-64
2022/12/11 06:08:50;;;;;;;24.67;7.82;;;;;;;-7.93;92.20;93098.47;5009235;28;20052;-64
2022/12/11 06:11:18;;;;;;;23.83;8.40;;;;;;;-7.96;91.79;93099.88;4999496;28;20644;-64
2022/12/11 06:13:50;;;;;;;24.15;8.57;;;;;;;-8.08;91.52;93094.47;4998295;28;20068;-64
2022/12/11 06:16:17;;;;;;;20.52;7.45;;;;;;;-8.24;90.96;93100.28;5011581;28;20045;-64
2022/12/11 06:18:44;;;;;;;22.67;7.22;;;;;;;-8.25;91.06;93100.59;4999237;28;20034;-64
2022/12/11 06:21:18;;;;;;;23.08;7.88;;;;;;;-8.28;92.35;93102.03;5005902;28;20434;-64
2022/12/11 06:23:46;;;;;;;22.15;8.60;;;;;;;-8.25;92.25;93101.41;5004229;28;20042;-63
2022/12/11 06:26:14;;;;;;;20.70;8.38;;;;;;;-8.28;92.76;93099.38;4997055;28;20392;-63
2022/12/11 06:28:41;;;;;;;19.30;7.25;;;;;;;-8.38;91.53;93097.03;5011731;28;20058;-64
2022/12/11 06:31:08;;;;;;;17.73;7.05;;;;;;;-8.45;91.18;93094.09;5011392;28;20034;-64
2022/12/11 06:33:35;;;;;;;19.33;7.15;;;;;;;-8.46;90.88;93087.25;5011620;28;20042;-64
2022/12/11 06:36:04;;;;;;;19.75;7.25;;;;;;;-8.49;90.80;93090.50;4997807;28;20044;-64
2022/12/11 06:38:31;;;;;;;20.85;8.18;;;;;;;-8.50;90.92;93089.75;5010616;28;20041;-64
2022/12/11 06:41:00;;;;;;;21.23;7.43;;;;;;;-8.49;90.68;93095.84;4999716;28;20069;-64
2022/12/11 06:43:27;;;;;;;25.65;7.68;;;;;;;-8.48;90.98;93095.53;5009996;28;20413;-64
2022/12/11 06:45:53;;;;;;;24.48;8.77;;;;;;;-8.50;91.80;93099.59;5011991;28;20050;-64
2022/12/11 06:48:27;;;;;;;23.40;9.02;;;;;;;-8.50;92.22;93096.94;5009317;28;20613;-65
2022/12/11 06:50:54;;;;;;;25.17;9.05;;;;;;;-8.49;91.60;93096.63;5011600;28;20046;-65
2022/12/11 06:53:21;;;;;;;22.80;8.80;;;;;;;-8.51;91.18;93098.84;5010995;28;20149;-65
2022/12/11 06:55:47;;;;;;;22.70;8.07;;;;;;;-8.60;90.70;93103.38;5005762;28;20398;-65
2022/12/11 06:58:14;;;;;;;19.83;7.90;;;;;;;-8.66;91.06;93102.75;5001767;28;20050;-65
2022/12/11 07:00:41;;;;;;;26.17;8.45;;;;;;;-8.56;91.04;93098.22;5010643;28;20046;-65
2022/12/11 07:03:08;;;;;;;26.00;8.88;;;;;;;-8.55;90.81;93095.25;5011015;28;20395;-65
2022/12/11 07:05:35;;;;;;;24.33;8.63;;;;;;;-8.55;91.22;93097.09;5011023;28;20402;-65
2022/12/11 07:08:02;;;;;;;22.30;7.93;;;;;;;-8.53;90.55;93094.91;4999654;28;20046;-65
2022/12/11 07:10:28;;;;;;;22.48;8.43;;;;;;;-8.55;90.36;93100.56;5007232;28;20104;-65
2022/12/11 07:12:55;;;;;;;19.85;6.97;;;;;;;-8.59;90.71;93098.84;4996276;28;20095;-65
2022/12/11 07:15:22;;;;;;;19.70;6.72;;;;;;;-8.46;89.99;93097.88;5010090;28;20069;-65
2022/12/11 07:17:48;;;;;;;20.10;7.45;;;;;;;-8.39;90.00;93106.13;5006217;28;20042;-62
2022/12/11 07:20:16;;;;;;;20.27;7.15;;;;;;;-8.27;89.89;93113.44;5001491;28;20441;-62
2022/12/11 07:22:43;;;;;;;19.60;6.65;;;;;;;-8.14;89.35;93114.38;5002251;28;20449;-64
2022/12/11 07:25:13;;;;;;;21.95;7.40;;;;;;;-8.09;88.31;93112.31;4990738;28;20054;-64
2022/12/11 07:27:40;;;;;;;20.40;7.55;;;;;;;-8.05;88.12;93107.91;5007603;28;20117;-64
2022/12/11 07:30:08;;;;;;;27.92;10.40;;;;;;;-8.27;87.00;93110.78;5010081;28;20044;-64
2022/12/11 07:32:35;;;;;;;124.85;37.15;;;;;;;-8.33;88.17;93109.38;5010265;28;20057;-65
2022/12/11 07:35:02;;;;;;;53.95;19.85;;;;;;;-8.14;88.49;93112.47;5010687;28;20407;-64
2022/12/11 07:37:29;;;;;;;40.53;14.85;;;;;;;-7.86;87.84;93106.75;5010224;28;20042;-65
2022/12/11 07:39:55;;;;;;;33.67;12.18;;;;;;;-7.64;87.10;93108.38;4983783;28;20673;-65
2022/12/11 07:42:22;;;;;;;24.10;9.82;;;;;;;-7.58;86.43;93111.66;4998535;28;20047;-65
2022/12/11 07:44:49;;;;;;;28.30;11.02;;;;;;;-7.50;87.42;93110.81;5008107;28;20063;-64
2022/12/11 07:47:15;;;;;;;29.05;10.73;;;;;;;-7.30;87.51;93107.41;5010060;28;20054;-64
2022/12/11 07:49:42;;;;;;;28.55;11.43;;;;;;;-7.20;87.50;93114.25;5010369;28;20107;-65
2022/12/11 07:52:09;;;;;;;38.78;15.18;;;;;;;-7.20;87.44;93110.78;5009843;28;20351;-64
2022/12/11 07:54:36;;;;;;;39.53;15.45;;;;;;;-7.03;88.14;93110.66;5010285;28;20120;-64
2022/12/11 07:57:02;;;;;;;37.47;15.55;;;;;;;-7.00;88.47;93112.69;5000848;28;20038;-62
2022/12/11 07:59:29;;;;;;;45.60;16.73;;;;;;;-6.70;87.74;93109.94;5009660;28;20473;-64
2022/12/11 08:01:56;;;;;;;35.63;14.63;;;;;;;-6.59;86.02;93103.09;5009906;28;20042;-65
2022/12/11 08:04:23;;;;;;;39.05;15.38;;;;;;;-6.54;86.05;93118.91;5009835;28;20056;-66
2022/12/11 08:06:49;;;;;;;38.20;15.18;;;;;;;-6.27;85.16;93120.22;5010241;28;20418;-65
2022/12/11 08:09:16;;;;;;;32.13;13.23;;;;;;;-6.16;83.73;93117.13;5009844;28;20050;-65
2022/12/11 08:11:49;;;;;;;33.92;13.48;;;;;;;-6.12;82.52;93115.38;5010222;28;20060;-64
2022/12/11 08:14:16;;;;;;;36.75;14.48;;;;;;;-6.20;81.26;93119.69;5009954;28;20715;-65
2022/12/11 08:16:43;;;;;;;47.15;18.45;;;;;;;-5.99;80.72;93124.19;4995225;28;20042;-65
2022/12/11 08:19:11;;;;;;;46.47;19.45;;;;;;;-5.22;79.51;93118.97;4988982;28;20034;-64
2022/12/11 08:21:38;;;;;;;45.63;19.40;;;;;;;-4.48;76.47;93121.50;5002196;28;20042;-64
2022/12/11 08:24:06;;;;;;;47.65;19.80;;;;;;;-2.88;71.93;93117.78;5009439;28;20427;-64
2022/12/11 08:26:33;;;;;;;43.35;17.73;;;;;;;-1.57;66.66;93111.88;4990124;28;20048;-64
2022/12/11 08:29:01;;;;;;;43.60;18.23;;;;;;;-1.12;62.45;93110.31;5009658;28;20087;-62
2022/12/11 08:31:28;;;;;;;39.67;16.77;;;;;;;0.40;59.05;93109.13;5009404;28;20056;-66
2022/12/11 08:33:55;;;;;;;41.67;18.80;;;;;;;0.58;56.29;93109.31;5009367;28;20103;-65
2022/12/11 08:36:22;;;;;;;39.60;17.23;;;;;;;1.63;55.53;93108.91;5008439;28;20510;-65
2022/12/11 08:38:50;;;;;;;39.65;17.70;;;;;;;1.58;53.26;93107.34;5009557;28;20052;-65
2022/12/11 08:41:19;;;;;;;40.28;19.05;;;;;;;1.39;55.28;93099.50;5009176;28;20050;-65
2022/12/11 08:43:47;;;;;;;40.90;21.08;;;;;;;3.69;51.33;93105.34;5009677;28;20049;-66
2022/12/11 08:46:14;;;;;;;55.22;25.55;;;;;;;3.92;48.32;93100.22;5009090;28;20046;-65
2022/12/11 08:48:42;;;;;;;59.63;26.77;;;;;;;4.23;46.71;93092.34;4999289;28;20043;-65
2022/12/11 08:51:14;;;;;;;49.35;24.83;;;;;;;2.14;49.25;93105.25;5006393;28;20049;-65
2022/12/11 08:53:41;;;;;;;40.90;20.95;;;;;;;3.36;45.92;93115.44;5009349;28;20050;-66
2022/12/11 08:56:16;;;;;;;41.30;20.98;;;;;;;4.99;43.21;93100.84;5002538;28;20453;-66
2022/12/11 08:58:44;;;;;;;43.05;21.75;;;;;;;4.19;42.10;93094.31;5009675;28;20048;-66
2022/12/11 09:01:14;;;;;;;53.13;26.10;;;;;;;2.81;46.93;93105.78;5008441;28;20076;-65
2022/12/11 09:03:41;;;;;;;51.63;25.15;;;;;;;3.42;46.47;93100.38;5009497;28;20056;-65
2022/12/11 09:06:11;;;;;;;48.85;24.05;;;;;;;2.89;47.42;93095.72;5009101;28;20395;-65
2022/12/11 09:08:37;;;;;;;60.28;26.63;;;;;;;1.29;50.72;93103.69;5009099;28;20038;-65
2022/12/11 09:11:07;;;;;;;69.60;23.55;;;;;;;1.80;50.52;93091.22;5009333;28;20402;-65
2022/12/11 09:13:34;;;;;;;51.43;20.97;;;;;;;1.16;52.47;93092.41;5009159;28;20104;-66
2022/12/11 09:16:04;;;;;;;54.30;23.10;;;;;;;1.76;51.18;93088.50;5001366;28;20442;-66
2022/12/11 09:18:31;;;;;;;55.67;24.15;;;;;;;3.75;46.73;93088.25;5003824;28;20045;-66
2022/12/11 09:21:00;;;;;;;57.42;25.73;;;;;;;4.02;46.47;93073.44;5009646;28;20042;-67
2022/12/11 09:23:26;;;;;;;43.97;23.05;;;;;;;5.66;43.11;93074.19;5008388;28;20592;-68
2022/12/11 09:25:53;;;;;;;45.27;22.13;;;;;;;3.82;47.01;93076.59;5000122;28;20038;-66
2022/12/11 09:28:20;;;;;;;45.92;23.40;;;;;;;7.83;39.24;93068.03;5009305;28;22714;-66
2022/12/11 09:30:47;;;;;;;41.15;21.27;;;;;;;5.38;40.65;93073.28;5007565;28;20042;-67
2022/12/11 09:33:14;;;;;;;39.72;21.08;;;;;;;6.22;39.92;93076.72;5009073;28;20045;-65
2022/12/11 09:35:41;;;;;;;35.17;20.13;;;;;;;8.41;37.21;93075.91;5009057;28;20637;-66
2022/12/11 09:38:08;;;;;;;36.90;20.57;;;;;;;10.20;33.96;93068.88;5008660;28;20116;-66
2022/12/11 09:40:42;;;;;;;30.02;17.25;;;;;;;9.18;33.52;93063.63;5009125;28;20069;-67
2022/12/11 09:43:25;;;;;;;28.58;17.35;;;;;;;9.31;33.96;93069.19;5009023;28;20048;-65
2022/12/11 09:45:54;;;;;;;30.80;18.50;;;;;;;10.46;32.34;93068.19;5010033;28;20410;-65
2022/12/11 09:48:24;;;;;;;28.70;16.58;;;;;;;6.44;37.68;93069.03;5012413;28;20103;-65
2022/12/11 09:50:53;;;;;;;28.63;16.53;;;;;;;6.12;38.66;93066.72;5012360;28;20054;-65
2022/12/11 09:53:32;;;;;;;28.50;16.98;;;;;;;5.60;39.93;93059.50;5011217;28;20056;-65
2022/12/11 09:56:14;;;;;;;28.55;17.35;;;;;;;7.35;37.63;93058.34;5004025;28;20069;-66
2022/12/11 09:59:13;;;;;;;39.90;25.02;;;;;;;7.00;38.19;93049.53;5000823;28;20048;-65
2022/12/11 10:01:58;;;;;;;29.35;17.88;;;;;;;7.29;37.08;93046.34;5007671;28;20046;-65
2022/12/11 10:05:03;;;;;;;27.90;16.97;;;;;;;8.13;36.67;93038.94;5012332;28;20491;-67
2022/12/11 10:07:44;;;;;;;28.85;17.30;;;;;;;11.38;31.54;93037.16;5011423;28;20410;-68
2022/12/11 10:10:39;;;;;;;30.95;19.60;;;;;;;11.21;31.46;93024.78;5011960;28;20075;-64
2022/12/11 10:13:33;;;;;;;40.85;24.80;;;;;;;7.59;34.96;93020.88;5011713;28;20050;-65
2022/12/11 10:16:16;;;;;;;37.25;22.45;;;;;;;6.08;38.23;93014.25;5004019;28;20092;-63
2022/12/11 10:18:43;;;;;;;35.83;20.60;;;;;;;6.79;37.71;93013.22;5008213;28;20044;-64
2022/12/11 10:21:13;;;;;;;34.55;20.25;;;;;;;8.15;35.80;93014.72;5011980;28;20552;-64
2022/12/11 10:23:46;;;;;;;34.50;20.40;;;;;;;6.70;38.15;93018.44;5011440;28;20103;-64
2022/12/11 10:26:20;;;;;;;33.60;19.92;;;;;;;6.67;37.98;93021.22;5002266;28;20050;-64
2022/12/11 10:28:46;;;;;;;31.90;19.05;;;;;;;5.58;39.44;93010.91;5011544;28;20108;-64
2022/12/11 10:31:37;;;;;;;32.73;18.97;;;;;;;2.47;47.34;93015.97;5011169;28;20053;-64
2022/12/11 10:34:24;;;;;;;31.95;18.40;;;;;;;6.57;40.63;93009.28;5011652;28;20042;-63
2022/12/11 10:36:53;;;;;;;29.70;17.58;;;;;;;7.31;37.38;93000.31;5011831;28;20450;-63
2022/12/11 10:39:26;;;;;;;30.02;16.33;;;;;;;5.18;41.51;92998.88;5007008;28;20786;-64
2022/12/11 10:41:54;;;;;;;27.20;16.02;;;;;;;6.58;38.88;92999.94;5011501;28;20042;-65
2022/12/11 10:44:26;;;;;;;24.40;13.90;;;;;;;5.45;41.33;92990.06;5011019;28;20041;-65
2022/12/11 10:47:14;;;;;;;23.27;13.52;;;;;;;6.72;39.50;92993.47;5011186;28;20410;-66
2022/12/11 10:49:58;;;;;;;23.63;13.48;;;;;;;7.96;37.50;92992.44;5002651;28;20705;-65
2022/12/11 10:52:33;;;;;;;23.20;13.90;;;;;;;7.35;38.65;92987.38;4997716;28;20391;-66
2022/12/11 10:55:05;;;;;;;24.50;13.52;;;;;;;7.14;39.41;92991.22;4985289;28;20121;-65
2022/12/11 10:57:38;;;;;;;21.63;13.07;;;;;;;8.51;36.04;92981.94;4998799;28;20038;-72
2022/12/11 11:00:07;;;;;;;21.23;12.05;;;;;;;12.11;31.43;92975.81;5010862;28;20052;-67
2022/12/11 11:02:37;;;;;;;22.80;12.93;;;;;;;10.36;32.17;92976.78;5010849;28;20414;-67
2022/12/11 11:05:33;;;;;;;20.73;12.85;;;;;;;10.38;32.90;92975.16;5010700;28;20093;-67
2022/12/11 11:08:12;;;;;;;21.50;12.48;;;;;;;8.33;35.05;92976.03;5010608;28;20407;-66
2022/12/11 11:11:20;;;;;;;23.93;14.67;;;;;;;10.63;32.55;92964.66;5010386;28;20559;-66
2022/12/11 11:13:47;;;;;;;20.08;11.85;;;;;;;11.86;30.25;92968.41;4983915;28;20046;-65
2022/12/11 11:16:19;;;;;;;20.42;12.45;;;;;;;10.85;31.35;92972.97;5001023;28;20058;-65
2022/12/11 11:18:54;;;;;;;19.67;11.88;;;;;;;11.80;30.22;92959.22;5005926;28;20050;-66
2022/12/11 11:21:25;;;;;;;20.95;12.25;;;;;;;12.42;29.88;92958.56;5010486;28;20054;-66
2022/12/11 11:23:53;;;;;;;19.43;11.70;;;;;;;11.42;30.54;92951.13;5010414;28;20046;-66
2022/12/11 11:26:24;;;;;;;21.20;12.70;;;;;;;12.94;29.36;92947.94;5001166;28;20392;-66
2022/12/11 11:29:26;;;;;;;21.45;13.07;;;;;;;13.02;28.74;92943.66;5010291;28;20143;-68
2022/12/11 11:31:53;;;;;;;23.30;14.15;;;;;;;13.58;28.48;92931.53;5010604;28;20049;-66
2022/12/11 11:34:21;;;;;;;27.83;16.00;;;;;;;9.84;32.34;92945.75;5010330;28;20054;-67
2022/12/11 11:36:56;;;;;;;23.00;14.20;;;;;;;13.03;29.71;92936.16;5010828;28;20038;-66
2022/12/11 11:39:39;;;;;;;24.02;15.05;;;;;;;14.19;27.63;92933.63;5009962;28;20042;-68
2022/12/11 11:42:26;;;;;;;23.65;15.40;;;;;;;12.82;29.29;92940.53;5010535;28;20042;-66
2022/12/11 11:45:09;;;;;;;22.92;14.63;;;;;;;13.09;28.31;92935.09;5010508;28;20050;-67
2022/12/11 11:47:44;;;;;;;30.45;18.65;;;;;;;12.54;29.68;92929.44;4995716;28;20042;-67
2022/12/11 11:50:17;;;;;;;23.70;14.30;;;;;;;11.96;30.68;92934.31;5010494;28;20033;-69
2022/12/11 11:52:50;;;;;;;25.73;16.23;;;;;;;10.61;32.80;92923.16;5008681;28;20038;-66